createdAt,value
2022-09-27T00:01:00.795Z,69.70
2022-09-27T00:03:29.557Z,69.80
2022-09-27T00:06:08.692Z,70.10
2022-09-27T00:08:38.035Z,70.40
2022-09-27T00:11:09.842Z,70.20
2022-09-27T00:13:38.248Z,70.50
2022-09-27T00:16:06.527Z,70.50
2022-09-27T00:18:35.766Z,71.60
2022-09-27T00:21:08.968Z,70.80
2022-09-27T00:23:37.911Z,70.90
2022-09-27T00:26:09.288Z,70.90
2022-09-27T00:28:37.390Z,71.00
2022-09-27T00:31:06.155Z,70.90
2022-09-27T00:33:34.272Z,70.90
2022-09-27T00:36:06.229Z,70.90
2022-09-27T00:38:34.270Z,71.10
2022-09-27T00:41:02.455Z,70.90
2022-09-27T00:43:46.707Z,70.90
2022-09-27T00:46:20.698Z,71.10
2022-09-27T00:48:50.594Z,71.80
2022-09-27T00:51:19.050Z,70.90
2022-09-27T00:53:52.071Z,70.80
2022-09-27T00:56:22.721Z,71.00
2022-09-27T00:58:57.792Z,71.10
2022-09-27T01:01:25.834Z,71.10
2022-09-27T01:03:58.703Z,70.80
2022-09-27T01:06:27.164Z,70.90
2022-09-27T01:08:55.641Z,70.90
2022-09-27T01:11:36.633Z,71.20
2022-09-27T01:14:34.812Z,71.20
2022-09-27T01:17:17.803Z,71.10
2022-09-27T01:20:08.392Z,71.10
2022-09-27T01:22:43.635Z,71.10
2022-09-27T01:25:29.582Z,71.10
2022-09-27T01:28:27.423Z,71.20
2022-09-27T01:31:03.394Z,71.40
2022-09-27T01:33:45.722Z,71.10
2022-09-27T01:36:25.254Z,71.60
2022-09-27T01:39:02.716Z,71.70
2022-09-27T01:41:37.378Z,71.70
2022-09-27T01:44:10.749Z,71.80
2022-09-27T01:46:43.162Z,72.20
2022-09-27T01:49:17.453Z,72.40
2022-09-27T01:51:49.676Z,72.40
2022-09-27T01:54:21.724Z,72.70
2022-09-27T01:56:52.799Z,72.70
2022-09-27T01:59:25.663Z,72.70
2022-09-27T02:02:00.112Z,72.90
2022-09-27T02:04:34.054Z,73.10
2022-09-27T02:07:06.974Z,73.20
2022-09-27T02:09:39.924Z,73.30
2022-09-27T02:12:13.496Z,73.60
2022-09-27T02:14:46.108Z,73.80
2022-09-27T02:17:24.658Z,73.80
2022-09-27T02:20:02.227Z,74.00
2022-09-27T02:22:37.029Z,74.00
2022-09-27T02:25:13.728Z,74.20
2022-09-27T02:27:50.089Z,74.60
2022-09-27T02:30:19.356Z,74.40
2022-09-27T02:32:49.196Z,74.40
2022-09-27T02:35:20.709Z,74.80
2022-09-27T02:37:49.559Z,74.90
2022-09-27T02:40:18.126Z,75.10
2022-09-27T02:42:46.994Z,75.30
2022-09-27T02:45:18.007Z,75.30
2022-09-27T02:48:03.449Z,75.50
2022-09-27T02:51:00.018Z,76.80
2022-09-27T02:53:42.021Z,75.90
2022-09-27T02:56:18.511Z,75.70
2022-09-27T02:58:58.178Z,75.80
2022-09-27T03:01:34.325Z,75.80
2022-09-27T03:04:11.589Z,76.00
2022-09-27T03:06:42.208Z,77.00
2022-09-27T03:09:19.069Z,76.10
2022-09-27T03:11:47.055Z,76.50
2022-09-27T03:14:15.504Z,76.30
2022-09-27T03:16:44.047Z,76.40
2022-09-27T03:19:13.498Z,76.50
2022-09-27T03:21:42.013Z,76.70
2022-09-27T03:24:10.938Z,75.60
2022-09-27T03:26:38.938Z,76.60
2022-09-27T03:29:07.391Z,76.60
2022-09-27T03:31:35.429Z,76.60
2022-09-27T03:34:03.894Z,76.60
2022-09-27T03:36:33.700Z,76.80
2022-09-27T03:39:01.706Z,76.90
2022-09-27T03:41:30.139Z,76.90
2022-09-27T03:43:59.889Z,76.90
2022-09-27T03:46:28.765Z,77.10
2022-09-27T03:48:56.839Z,77.10
2022-09-27T03:51:25.400Z,77.10
2022-09-27T03:53:54.872Z,77.20
2022-09-27T03:56:23.281Z,77.40
2022-09-27T03:58:51.298Z,77.40
2022-09-27T04:01:20.311Z,77.60
2022-09-27T04:03:48.363Z,77.70
2022-09-27T04:06:17.945Z,77.60
2022-09-27T04:08:46.634Z,77.80
2022-09-27T04:11:16.297Z,77.80
2022-09-27T04:13:45.341Z,77.90
2022-09-27T04:16:13.377Z,78.00
2022-09-27T04:18:41.396Z,78.00
2022-09-27T04:21:10.076Z,78.10
2022-09-27T04:23:38.384Z,78.30
2022-09-27T04:26:06.962Z,78.20
2022-09-27T04:28:36.366Z,78.10
2022-09-27T04:31:04.424Z,78.10
2022-09-27T04:33:32.596Z,78.00
2022-09-27T04:36:18.288Z,77.80
2022-09-27T04:38:46.482Z,77.60
2022-09-27T04:41:14.866Z,77.30
2022-09-27T04:43:44.289Z,77.10
2022-09-27T04:46:12.365Z,77.10
2022-09-27T04:48:41.252Z,76.80
2022-09-27T04:51:11.398Z,76.80
2022-09-27T04:53:40.186Z,76.80
2022-09-27T04:56:08.648Z,76.70
2022-09-27T04:58:36.908Z,76.80
2022-09-27T05:01:07.711Z,76.80
2022-09-27T05:03:36.121Z,76.90
2022-09-27T05:06:04.732Z,76.90
2022-09-27T05:08:32.845Z,76.90
2022-09-27T05:11:01.825Z,76.90
2022-09-27T05:13:29.922Z,76.90
2022-09-27T05:16:04.132Z,77.00
2022-09-27T05:18:34.067Z,77.30
2022-09-27T05:21:02.177Z,77.10
2022-09-27T05:23:31.049Z,77.10
2022-09-27T05:25:59.293Z,77.30
2022-09-27T05:28:27.307Z,77.30
2022-09-27T05:30:55.503Z,77.60
2022-09-27T05:33:23.617Z,77.60
2022-09-27T05:35:57.866Z,77.80
2022-09-27T05:38:26.318Z,78.00
2022-09-27T05:40:54.965Z,78.00
2022-09-27T05:43:25.365Z,78.00
2022-09-27T05:45:53.989Z,78.20
2022-09-27T05:48:22.861Z,78.40
2022-09-27T05:50:51.307Z,78.40
2022-09-27T05:53:20.880Z,79.30
2022-09-27T05:55:49.839Z,78.60
2022-09-27T05:58:17.842Z,78.70
2022-09-27T06:00:46.442Z,78.70
2022-09-27T06:03:15.512Z,78.80
2022-09-27T06:05:46.921Z,78.90
2022-09-27T06:08:17.657Z,78.90
2022-09-27T06:10:47.902Z,78.90
2022-09-27T06:13:18.181Z,79.10
2022-09-27T06:15:47.276Z,79.20
2022-09-27T06:18:18.257Z,79.10
2022-09-27T06:20:46.571Z,79.20
2022-09-27T06:23:16.779Z,79.20
2022-09-27T06:25:46.745Z,79.10
2022-09-27T06:28:15.789Z,79.80
2022-09-27T06:30:45.515Z,78.80
2022-09-27T06:33:15.234Z,78.70
2022-09-27T06:35:45.869Z,78.60
2022-09-27T06:38:15.614Z,78.60
2022-09-27T06:40:45.976Z,78.80
2022-09-27T06:43:17.196Z,78.80
2022-09-27T06:45:45.445Z,78.70
2022-09-27T06:48:16.567Z,78.60
2022-09-27T06:50:46.780Z,79.50
2022-09-27T06:53:16.737Z,78.70
2022-09-27T06:55:45.887Z,78.60
2022-09-27T06:58:32.916Z,78.40
2022-09-27T07:01:01.984Z,78.30
2022-09-27T07:03:35.472Z,78.20
2022-09-27T07:06:07.553Z,78.00
2022-09-27T07:08:35.935Z,77.80
2022-09-27T07:11:06.744Z,77.60
2022-09-27T07:13:40.898Z,77.40
2022-09-27T07:16:08.991Z,77.30
2022-09-27T07:18:37.519Z,77.30
2022-09-27T07:21:05.975Z,77.30
2022-09-27T07:23:34.401Z,77.30
2022-09-27T07:26:04.861Z,77.10
2022-09-27T07:28:32.897Z,77.30
2022-09-27T07:31:04.283Z,77.30
2022-09-27T07:33:33.295Z,77.30
2022-09-27T07:36:01.674Z,77.40
2022-09-27T07:38:30.404Z,77.50
2022-09-27T07:40:59.662Z,77.40
2022-09-27T07:43:28.257Z,77.30
2022-09-27T07:45:58.509Z,77.30
2022-09-27T07:48:28.402Z,77.40
2022-09-27T07:50:56.874Z,77.50
2022-09-27T07:53:25.596Z,77.80
2022-09-27T07:55:54.955Z,77.80
2022-09-27T07:58:23.469Z,77.80
2022-09-27T08:00:52.026Z,77.50
2022-09-27T08:03:20.517Z,77.60
2022-09-27T08:05:50.076Z,77.80
2022-09-27T08:08:18.957Z,77.80
2022-09-27T08:10:47.146Z,77.80
2022-09-27T08:13:20.687Z,77.80
2022-09-27T08:15:49.886Z,77.80
2022-09-27T08:18:17.880Z,77.80
2022-09-27T08:20:48.067Z,77.80
2022-09-27T08:23:17.494Z,77.60
2022-09-27T08:25:45.966Z,77.50
2022-09-27T08:28:13.933Z,77.20
2022-09-27T08:30:42.323Z,77.10
2022-09-27T08:33:10.356Z,77.10
2022-09-27T08:35:38.818Z,76.90
2022-09-27T08:38:07.366Z,76.70
2022-09-27T08:40:48.875Z,76.70
2022-09-27T08:43:25.660Z,76.50
2022-09-27T08:46:07.692Z,76.50
2022-09-27T08:48:37.394Z,76.30
2022-09-27T08:51:08.668Z,76.00
2022-09-27T08:53:41.397Z,76.00
2022-09-27T08:56:12.926Z,76.00
2022-09-27T08:58:46.891Z,75.80
2022-09-27T09:01:17.457Z,76.70
2022-09-27T09:03:50.420Z,75.60
2022-09-27T09:06:23.358Z,75.30
2022-09-27T09:09:04.835Z,75.20
2022-09-27T09:12:06.127Z,75.30
2022-09-27T09:14:54.913Z,75.40
2022-09-27T09:17:36.858Z,75.40
2022-09-27T09:20:18.147Z,75.60
2022-09-27T09:23:03.673Z,76.00
2022-09-27T09:25:42.776Z,76.50
2022-09-27T09:28:25.115Z,76.80
2022-09-27T09:31:06.539Z,77.00
2022-09-27T09:33:39.361Z,77.00
2022-09-27T09:36:15.898Z,77.10
2022-09-27T09:38:49.586Z,76.70
2022-09-27T09:41:22.971Z,76.90
2022-09-27T09:43:56.831Z,77.10
2022-09-27T09:46:32.705Z,77.10
2022-09-27T09:49:05.501Z,76.90
2022-09-27T09:51:39.461Z,76.70
2022-09-27T09:54:16.024Z,76.80
2022-09-27T09:56:48.197Z,76.60
2022-09-27T09:59:24.994Z,76.80
2022-09-27T10:01:57.119Z,77.30
2022-09-27T10:04:27.686Z,76.30
2022-09-27T10:06:59.069Z,77.10
2022-09-27T10:09:29.704Z,75.60
2022-09-27T10:11:58.363Z,75.70
2022-09-27T10:14:29.600Z,75.50
2022-09-27T10:17:00.731Z,75.50
2022-09-27T10:19:31.645Z,75.50
2022-09-27T10:22:03.206Z,75.30
2022-09-27T10:24:31.853Z,75.30
2022-09-27T10:27:02.650Z,74.90
2022-09-27T10:29:37.654Z,74.80
2022-09-27T10:32:20.171Z,74.60
2022-09-27T10:34:48.663Z,74.50
2022-09-27T10:37:19.248Z,74.40
2022-09-27T10:39:48.576Z,74.20
2022-09-27T10:42:34.021Z,74.40
2022-09-27T10:45:26.803Z,74.20
2022-09-27T10:47:55.618Z,74.30
2022-09-27T10:50:48.860Z,74.20
2022-09-27T10:53:20.505Z,73.90
2022-09-27T10:55:52.542Z,73.10
2022-09-27T10:58:26.115Z,73.10
2022-09-27T11:01:03.725Z,73.10
2022-09-27T11:03:34.155Z,73.20
2022-09-27T11:06:19.255Z,73.40
2022-09-27T11:08:49.350Z,73.70
2022-09-27T11:11:21.698Z,74.10
2022-09-27T11:14:00.900Z,74.70
2022-09-27T11:16:44.884Z,75.00
2022-09-27T11:19:28.038Z,74.80
2022-09-27T11:22:01.726Z,74.70
2022-09-27T11:24:48.396Z,74.30
2022-09-27T11:27:27.046Z,74.10
2022-09-27T11:30:06.509Z,74.20
2022-09-27T11:33:22.351Z,75.40
2022-09-27T11:36:01.101Z,75.00
2022-09-27T11:38:53.264Z,75.80
2022-09-27T11:41:46.522Z,76.70
2022-09-27T11:45:03.047Z,76.80
2022-09-27T11:47:47.893Z,75.50
2022-09-27T11:50:35.213Z,74.50
2022-09-27T11:53:17.867Z,73.90
2022-09-27T11:55:55.912Z,73.40
2022-09-27T11:58:31.949Z,73.30
2022-09-27T12:01:13.134Z,73.30
2022-09-27T12:04:30.715Z,73.30
2022-09-27T12:07:05.786Z,73.60
2022-09-27T12:09:38.318Z,73.80
2022-09-27T12:12:12.595Z,74.60
2022-09-27T12:14:44.787Z,75.70
2022-09-27T12:17:17.248Z,76.40
2022-09-27T12:19:50.860Z,76.90
2022-09-27T12:22:53.952Z,77.10
2022-09-27T12:25:21.090Z,76.70
2022-09-27T12:27:52.932Z,76.80
2022-09-27T12:30:21.391Z,76.00
2022-09-27T12:32:57.822Z,74.70
2022-09-27T12:35:30.930Z,73.40
2022-09-27T12:38:04.650Z,72.10
2022-09-27T12:40:35.858Z,71.00
2022-09-27T12:43:09.632Z,69.50
2022-09-27T12:45:55.583Z,69.60
2022-09-27T12:48:32.943Z,68.80
2022-09-27T12:51:09.148Z,68.60
2022-09-27T12:53:58.653Z,68.90
2022-09-27T12:56:41.766Z,68.90
2022-09-27T12:59:30.438Z,69.30
2022-09-27T13:02:32.298Z,69.50
2022-09-27T13:05:24.610Z,70.10
2022-09-27T13:08:05.763Z,70.10
2022-09-27T13:10:46.696Z,70.10
2022-09-27T13:13:17.529Z,70.00
2022-09-27T13:15:47.401Z,70.00
2022-09-27T13:18:35.159Z,69.70
2022-09-27T13:21:04.894Z,69.20
2022-09-27T13:24:03.694Z,69.60
2022-09-27T13:26:48.933Z,69.10
2022-09-27T13:29:27.637Z,68.30
2022-09-27T13:32:18.500Z,68.70
2022-09-27T13:34:48.709Z,68.80
2022-09-27T13:37:49.550Z,68.90
2022-09-27T13:40:29.588Z,68.70
2022-09-27T13:43:42.017Z,67.00
2022-09-27T13:46:18.702Z,68.30
2022-09-27T13:48:51.852Z,67.50
2022-09-27T13:51:33.213Z,68.80
2022-09-27T13:54:06.645Z,68.80
2022-09-27T13:56:52.757Z,68.50
2022-09-27T13:59:28.832Z,68.80
2022-09-27T14:02:01.021Z,69.00
2022-09-27T14:04:35.545Z,68.90
2022-09-27T14:07:05.467Z,68.80
2022-09-27T14:09:38.652Z,68.70
2022-09-27T14:12:11.940Z,68.80
2022-09-27T14:14:44.298Z,69.00
2022-09-27T14:17:12.803Z,68.70
2022-09-27T14:19:42.616Z,68.90
2022-09-27T14:22:15.266Z,69.00
2022-09-27T14:24:48.810Z,68.90
2022-09-27T14:27:20.010Z,69.00
2022-09-27T14:29:54.665Z,69.20
2022-09-27T14:32:25.484Z,69.20
2022-09-27T14:35:28.825Z,69.30
2022-09-27T14:37:55.938Z,69.60
2022-09-27T14:40:24.967Z,69.90
2022-09-27T14:42:56.200Z,70.10
2022-09-27T14:45:30.844Z,69.60
2022-09-27T14:48:00.600Z,69.20
2022-09-27T14:50:31.135Z,69.00
2022-09-27T14:53:01.720Z,68.50
2022-09-27T14:55:35.290Z,68.80
2022-09-27T14:58:05.458Z,68.30
2022-09-27T15:00:37.856Z,68.70
2022-09-27T15:03:10.321Z,68.50
2022-09-27T15:05:42.985Z,68.00
2022-09-27T15:08:15.702Z,67.70
2022-09-27T15:10:45.030Z,67.40
2022-09-27T15:13:18.974Z,67.30
2022-09-27T15:15:49.349Z,66.40
2022-09-27T15:18:41.273Z,65.80
2022-09-27T15:21:11.026Z,64.30
2022-09-27T15:23:41.963Z,65.20
2022-09-27T15:26:15.528Z,64.90
2022-09-27T15:28:45.780Z,64.50
2022-09-27T15:31:16.277Z,64.70
2022-09-27T15:33:53.538Z,64.30
2022-09-27T15:36:52.766Z,63.90
2022-09-27T15:39:28.387Z,63.60
2022-09-27T15:42:08.922Z,64.00
2022-09-27T15:44:46.442Z,64.00
2022-09-27T15:47:43.649Z,64.20
2022-09-27T15:50:34.515Z,64.70
2022-09-27T15:53:02.988Z,63.60
2022-09-27T15:55:33.214Z,64.80
2022-09-27T15:58:03.488Z,65.30
2022-09-27T16:00:31.942Z,64.90
2022-09-27T16:03:01.849Z,65.20
2022-09-27T16:05:33.586Z,64.90
2022-09-27T16:08:02.036Z,65.50
2022-09-27T16:10:34.211Z,65.70
2022-09-27T16:13:02.855Z,65.70
2022-09-27T16:15:31.549Z,66.10
2022-09-27T16:18:01.596Z,67.80
2022-09-27T16:20:29.976Z,66.60
2022-09-27T16:22:58.797Z,66.60
2022-09-27T16:25:27.196Z,66.80
2022-09-27T16:27:55.622Z,66.60
2022-09-27T16:30:23.594Z,66.80
2022-09-27T16:32:52.580Z,67.10
2022-09-27T16:35:23.556Z,67.20
2022-09-27T16:37:51.626Z,67.40
2022-09-27T16:40:20.443Z,67.70
2022-09-27T16:42:50.373Z,67.70
2022-09-27T16:45:19.890Z,67.90
2022-09-27T16:47:48.884Z,67.80
2022-09-27T16:50:35.125Z,67.80
2022-09-27T16:53:05.651Z,68.00
2022-09-27T16:55:33.726Z,68.00
2022-09-27T16:58:04.201Z,68.30
2022-09-27T17:00:33.607Z,68.30
2022-09-27T17:03:02.110Z,68.50
2022-09-27T17:05:32.170Z,68.50
2022-09-27T17:08:00.217Z,68.50
2022-09-27T17:10:32.129Z,68.50
2022-09-27T17:13:01.571Z,68.60
2022-09-27T17:15:30.010Z,68.80
2022-09-27T17:17:58.040Z,68.80
2022-09-27T17:20:26.480Z,68.90
2022-09-27T17:22:54.431Z,69.30
2022-09-27T17:25:22.510Z,69.50
2022-09-27T17:27:51.943Z,69.40
2022-09-27T17:30:21.447Z,69.50
2022-09-27T17:32:49.457Z,69.70
2022-09-27T17:35:18.167Z,69.60
2022-09-27T17:37:46.900Z,69.60
2022-09-27T17:40:16.258Z,69.70
2022-09-27T17:42:44.929Z,70.00
2022-09-27T17:45:15.045Z,70.00
2022-09-27T17:48:01.115Z,70.00
2022-09-27T17:50:29.443Z,70.00
2022-09-27T17:53:01.181Z,69.90
